sensor_id;sensor_type;location;lat;lon;timestamp;temperature;humidity
30473;DHT22;17263;48.160;11.452;2023-11-19T00:00:57;5.00;99.90
30473;DHT22;17263;48.160;11.452;2023-11-19T00:03:23;5.10;99.90
30473;DHT22;17263;48.160;11.452;2023-11-19T00:05:50;5.10;99.90
30473;DHT22;17263;48.160;11.452;2023-11-19T00:08:16;5.10;99.90
30473;DHT22;17263;48.160;11.452;2023-11-19T00:10:42;5.20;99.90
30473;DHT22;17263;48.160;11.452;2023-11-19T00:13:08;5.10;99.90
30473;DHT22;17263;48.160;11.452;2023-11-19T00:15:36;5.10;99.90
30473;DHT22;17263;48.160;11.452;2023-11-19T00:18:02;5.10;99.90
30473;DHT22;17263;48.160;11.452;2023-11-19T00:20:30;5.20;99.90
30473;DHT22;17263;48.160;11.452;2023-11-19T00:22:56;5.20;99.90
30473;DHT22;17263;48.160;11.452;2023-11-19T00:25:23;5.20;99.90
30473;DHT22;17263;48.160;11.452;2023-11-19T00:27:50;5.20;99.90
30473;DHT22;17263;48.160;11.452;2023-11-19T00:30:17;5.20;99.90
30473;DHT22;17263;48.160;11.452;2023-11-19T00:32:43;5.20;99.90
30473;DHT22;17263;48.160;11.452;2023-11-19T00:35:10;5.30;99.90
30473;DHT22;17263;48.160;11.452;2023-11-19T00:37:36;5.40;99.90
30473;DHT22;17263;48.160;11.452;2023-11-19T00:40:02;5.40;99.90
30473;DHT22;17263;48.160;11.452;2023-11-19T00:42:31;5.40;99.90
30473;DHT22;17263;48.160;11.452;2023-11-19T00:44:57;5.40;99.90
30473;DHT22;17263;48.160;11.452;2023-11-19T00:47:23;5.50;99.90
30473;DHT22;17263;48.160;11.452;2023-11-19T00:49:50;5.50;99.90
30473;DHT22;17263;48.160;11.452;2023-11-19T00:52:16;5.50;99.90
30473;DHT22;17263;48.160;11.452;2023-11-19T00:54:43;5.50;99.90
30473;DHT22;17263;48.160;11.452;2023-11-19T00:57:09;5.50;99.90
30473;DHT22;17263;48.160;11.452;2023-11-19T00:59:35;5.50;99.90
30473;DHT22;17263;48.160;11.452;2023-11-19T01:02:01;5.60;99.90
30473;DHT22;17263;48.160;11.452;2023-11-19T01:04:34;5.60;99.90
30473;DHT22;17263;48.160;11.452;2023-11-19T01:07:05;5.60;99.90
30473;DHT22;17263;48.160;11.452;2023-11-19T01:09:32;5.60;99.90
30473;DHT22;17263;48.160;11.452;2023-11-19T01:12:01;5.70;99.90
30473;DHT22;17263;48.160;11.452;2023-11-19T01:14:28;5.70;99.90
30473;DHT22;17263;48.160;11.452;2023-11-19T01:16:54;5.70;99.90
30473;DHT22;17263;48.160;11.452;2023-11-19T01:19:23;5.70;99.90
30473;DHT22;17263;48.160;11.452;2023-11-19T01:21:53;5.70;99.90
30473;DHT22;17263;48.160;11.452;2023-11-19T01:24:19;5.70;99.90
30473;DHT22;17263;48.160;11.452;2023-11-19T01:26:45;5.80;99.90
30473;DHT22;17263;48.160;11.452;2023-11-19T01:29:30;5.80;99.90
30473;DHT22;17263;48.160;11.452;2023-11-19T01:32:14;5.80;99.90
30473;DHT22;17263;48.160;11.452;2023-11-19T01:35:00;5.80;99.90
30473;DHT22;17263;48.160;11.452;2023-11-19T01:37:47;5.80;99.90
30473;DHT22;17263;48.160;11.452;2023-11-19T01:40:33;5.90;99.90
30473;DHT22;17263;48.160;11.452;2023-11-19T01:43:52;5.90;99.90
30473;DHT22;17263;48.160;11.452;2023-11-19T01:46:43;6.00;99.90
30473;DHT22;17263;48.160;11.452;2023-11-19T01:49:09;6.00;99.90
30473;DHT22;17263;48.160;11.452;2023-11-19T01:51:38;6.10;99.90
30473;DHT22;17263;48.160;11.452;2023-11-19T01:54:05;6.10;99.90
30473;DHT22;17263;48.160;11.452;2023-11-19T01:56:32;6.10;99.90
30473;DHT22;17263;48.160;11.452;2023-11-19T01:58:58;6.10;99.90
30473;DHT22;17263;48.160;11.452;2023-11-19T02:01:25;6.10;99.90
30473;DHT22;17263;48.160;11.452;2023-11-19T02:03:51;6.20;99.90
30473;DHT22;17263;48.160;11.452;2023-11-19T02:06:17;6.30;99.90
30473;DHT22;17263;48.160;11.452;2023-11-19T02:08:44;6.30;99.90
30473;DHT22;17263;48.160;11.452;2023-11-19T02:11:10;6.40;99.90
30473;DHT22;17263;48.160;11.452;2023-11-19T02:13:37;6.40;99.90
30473;DHT22;17263;48.160;11.452;2023-11-19T02:16:04;6.50;99.90
30473;DHT22;17263;48.160;11.452;2023-11-19T02:18:30;6.60;99.90
30473;DHT22;17263;48.160;11.452;2023-11-19T02:20:57;6.60;99.90
30473;DHT22;17263;48.160;11.452;2023-11-19T02:23:25;6.70;99.90
30473;DHT22;17263;48.160;11.452;2023-11-19T02:26:14;6.80;99.90
30473;DHT22;17263;48.160;11.452;2023-11-19T02:28:44;6.80;99.90
30473;DHT22;17263;48.160;11.452;2023-11-19T02:31:10;7.00;99.90
30473;DHT22;17263;48.160;11.452;2023-11-19T02:33:38;7.10;99.90
30473;DHT22;17263;48.160;11.452;2023-11-19T02:36:08;7.20;99.90
30473;DHT22;17263;48.160;11.452;2023-11-19T02:38:35;7.30;99.90
30473;DHT22;17263;48.160;11.452;2023-11-19T02:41:05;7.30;99.90
30473;DHT22;17263;48.160;11.452;2023-11-19T02:43:32;7.40;99.90
30473;DHT22;17263;48.160;11.452;2023-11-19T02:46:02;7.50;99.90
30473;DHT22;17263;48.160;11.452;2023-11-19T02:48:29;7.60;99.90
30473;DHT22;17263;48.160;11.452;2023-11-19T02:50:56;7.60;99.90
30473;DHT22;17263;48.160;11.452;2023-11-19T02:53:24;7.70;99.90
30473;DHT22;17263;48.160;11.452;2023-11-19T02:55:53;7.70;99.90
30473;DHT22;17263;48.160;11.452;2023-11-19T02:58:19;7.80;99.90
30473;DHT22;17263;48.160;11.452;2023-11-19T03:00:46;7.90;99.90
30473;DHT22;17263;48.160;11.452;2023-11-19T03:03:24;7.90;99.90
30473;DHT22;17263;48.160;11.452;2023-11-19T03:05:54;7.90;99.90
30473;DHT22;17263;48.160;11.452;2023-11-19T03:08:21;8.00;99.90
30473;DHT22;17263;48.160;11.452;2023-11-19T03:10:48;8.10;99.90
30473;DHT22;17263;48.160;11.452;2023-11-19T03:13:15;8.00;99.90
30473;DHT22;17263;48.160;11.452;2023-11-19T03:15:41;8.00;99.90
30473;DHT22;17263;48.160;11.452;2023-11-19T03:18:07;8.10;99.90
30473;DHT22;17263;48.160;11.452;2023-11-19T03:20:33;8.10;99.90
30473;DHT22;17263;48.160;11.452;2023-11-19T03:23:00;8.10;99.90
30473;DHT22;17263;48.160;11.452;2023-11-19T03:25:28;8.30;99.90
30473;DHT22;17263;48.160;11.452;2023-11-19T03:28:00;8.20;99.90
30473;DHT22;17263;48.160;11.452;2023-11-19T03:30:27;8.20;99.90
30473;DHT22;17263;48.160;11.452;2023-11-19T03:32:55;8.20;99.90
30473;DHT22;17263;48.160;11.452;2023-11-19T03:35:21;8.30;99.90
30473;DHT22;17263;48.160;11.452;2023-11-19T03:37:47;8.30;99.90
30473;DHT22;17263;48.160;11.452;2023-11-19T03:40:13;8.40;99.90
30473;DHT22;17263;48.160;11.452;2023-11-19T03:42:40;8.50;99.90
30473;DHT22;17263;48.160;11.452;2023-11-19T03:45:07;8.50;99.90
30473;DHT22;17263;48.160;11.452;2023-11-19T03:47:35;8.60;99.90
30473;DHT22;17263;48.160;11.452;2023-11-19T03:50:01;8.60;99.90
30473;DHT22;17263;48.160;11.452;2023-11-19T03:52:28;8.70;99.90
30473;DHT22;17263;48.160;11.452;2023-11-19T03:54:57;8.70;99.90
30473;DHT22;17263;48.160;11.452;2023-11-19T03:57:23;8.70;99.90
30473;DHT22;17263;48.160;11.452;2023-11-19T03:59:49;8.80;99.90
30473;DHT22;17263;48.160;11.452;2023-11-19T04:02:16;8.90;99.90
30473;DHT22;17263;48.160;11.452;2023-11-19T04:04:42;8.90;99.90
30473;DHT22;17263;48.160;11.452;2023-11-19T04:07:08;8.90;99.90
30473;DHT22;17263;48.160;11.452;2023-11-19T04:09:35;8.90;99.90
30473;DHT22;17263;48.160;11.452;2023-11-19T04:12:04;8.90;99.90
30473;DHT22;17263;48.160;11.452;2023-11-19T04:14:30;8.90;99.90
30473;DHT22;17263;48.160;11.452;2023-11-19T04:16:56;8.90;99.90
30473;DHT22;17263;48.160;11.452;2023-11-19T04:19:22;8.90;99.90
30473;DHT22;17263;48.160;11.452;2023-11-19T04:21:48;9.00;99.90
30473;DHT22;17263;48.160;11.452;2023-11-19T04:24:14;9.00;99.90
30473;DHT22;17263;48.160;11.452;2023-11-19T04:26:44;9.00;99.90
30473;DHT22;17263;48.160;11.452;2023-11-19T04:29:16;9.10;99.90
30473;DHT22;17263;48.160;11.452;2023-11-19T04:31:45;9.10;99.90
30473;DHT22;17263;48.160;11.452;2023-11-19T04:34:12;9.10;99.90
30473;DHT22;17263;48.160;11.452;2023-11-19T04:36:38;9.10;99.90
30473;DHT22;17263;48.160;11.452;2023-11-19T04:39:04;9.10;99.90
30473;DHT22;17263;48.160;11.452;2023-11-19T04:41:48;9.10;99.90
30473;DHT22;17263;48.160;11.452;2023-11-19T04:44:15;9.20;99.90
30473;DHT22;17263;48.160;11.452;2023-11-19T04:46:42;9.20;99.90
30473;DHT22;17263;48.160;11.452;2023-11-19T04:49:12;9.20;99.90
30473;DHT22;17263;48.160;11.452;2023-11-19T04:51:42;9.30;99.90
30473;DHT22;17263;48.160;11.452;2023-11-19T04:54:09;9.30;99.90
30473;DHT22;17263;48.160;11.452;2023-11-19T04:56:36;9.40;99.90
30473;DHT22;17263;48.160;11.452;2023-11-19T04:59:04;9.40;99.90
30473;DHT22;17263;48.160;11.452;2023-11-19T05:01:34;9.50;99.90
30473;DHT22;17263;48.160;11.452;2023-11-19T05:04:01;9.50;99.90
30473;DHT22;17263;48.160;11.452;2023-11-19T05:06:31;9.40;99.90
30473;DHT22;17263;48.160;11.452;2023-11-19T05:08:59;9.50;99.90
30473;DHT22;17263;48.160;11.452;2023-11-19T05:11:27;9.50;99.90
30473;DHT22;17263;48.160;11.452;2023-11-19T05:13:54;9.50;99.90
30473;DHT22;17263;48.160;11.452;2023-11-19T05:16:20;9.40;99.90
30473;DHT22;17263;48.160;11.452;2023-11-19T05:18:47;9.40;99.90
30473;DHT22;17263;48.160;11.452;2023-11-19T05:21:13;9.40;99.90
30473;DHT22;17263;48.160;11.452;2023-11-19T05:23:39;9.50;99.90
30473;DHT22;17263;48.160;11.452;2023-11-19T05:26:07;9.50;99.90
30473;DHT22;17263;48.160;11.452;2023-11-19T05:28:33;9.40;99.90
30473;DHT22;17263;48.160;11.452;2023-11-19T05:30:59;9.40;99.90
30473;DHT22;17263;48.160;11.452;2023-11-19T05:33:25;9.40;99.90
30473;DHT22;17263;48.160;11.452;2023-11-19T05:35:51;9.40;99.90
30473;DHT22;17263;48.160;11.452;2023-11-19T05:38:17;9.40;99.90
30473;DHT22;17263;48.160;11.452;2023-11-19T05:40:43;9.40;99.90
30473;DHT22;17263;48.160;11.452;2023-11-19T05:43:09;9.30;99.90
30473;DHT22;17263;48.160;11.452;2023-11-19T05:45:35;9.40;99.90
30473;DHT22;17263;48.160;11.452;2023-11-19T05:48:01;9.40;99.90
30473;DHT22;17263;48.160;11.452;2023-11-19T05:50:30;9.40;99.90
30473;DHT22;17263;48.160;11.452;2023-11-19T05:52:56;9.40;99.90
30473;DHT22;17263;48.160;11.452;2023-11-19T05:55:22;9.40;99.90
30473;DHT22;17263;48.160;11.452;2023-11-19T05:57:50;9.40;99.90
30473;DHT22;17263;48.160;11.452;2023-11-19T06:00:17;9.40;99.90
30473;DHT22;17263;48.160;11.452;2023-11-19T06:02:44;9.40;99.90
30473;DHT22;17263;48.160;11.452;2023-11-19T06:05:10;9.40;99.90
30473;DHT22;17263;48.160;11.452;2023-11-19T06:07:36;9.40;99.90
30473;DHT22;17263;48.160;11.452;2023-11-19T06:10:03;9.40;99.90
30473;DHT22;17263;48.160;11.452;2023-11-19T06:12:31;9.40;99.90
30473;DHT22;17263;48.160;11.452;2023-11-19T06:14:57;9.40;99.90
30473;DHT22;17263;48.160;11.452;2023-11-19T06:17:23;9.40;99.90
30473;DHT22;17263;48.160;11.452;2023-11-19T06:19:49;9.40;99.90
30473;DHT22;17263;48.160;11.452;2023-11-19T06:22:16;9.50;99.90
30473;DHT22;17263;48.160;11.452;2023-11-19T06:24:42;9.50;99.90
30473;DHT22;17263;48.160;11.452;2023-11-19T06:27:08;9.50;99.90
30473;DHT22;17263;48.160;11.452;2023-11-19T06:29:34;9.60;99.90
30473;DHT22;17263;48.160;11.452;2023-11-19T06:32:00;9.50;99.90
30473;DHT22;17263;48.160;11.452;2023-11-19T06:34:26;9.50;99.90
30473;DHT22;17263;48.160;11.452;2023-11-19T06:36:52;9.50;99.90
30473;DHT22;17263;48.160;11.452;2023-11-19T06:39:18;9.50;99.90
30473;DHT22;17263;48.160;11.452;2023-11-19T06:41:46;9.60;99.90
30473;DHT22;17263;48.160;11.452;2023-11-19T06:44:12;9.60;99.90
30473;DHT22;17263;48.160;11.452;2023-11-19T06:46:39;9.60;99.90
30473;DHT22;17263;48.160;11.452;2023-11-19T06:49:05;9.70;99.90
30473;DHT22;17263;48.160;11.452;2023-11-19T06:51:31;9.60;99.90
30473;DHT22;17263;48.160;11.452;2023-11-19T06:53:57;9.60;99.90
30473;DHT22;17263;48.160;11.452;2023-11-19T06:56:24;9.60;99.90
30473;DHT22;17263;48.160;11.452;2023-11-19T06:58:50;9.60;99.90
30473;DHT22;17263;48.160;11.452;2023-11-19T07:01:17;9.60;99.90
30473;DHT22;17263;48.160;11.452;2023-11-19T07:03:47;9.60;99.90
30473;DHT22;17263;48.160;11.452;2023-11-19T07:06:13;9.70;99.90
30473;DHT22;17263;48.160;11.452;2023-11-19T07:08:41;9.80;99.90
30473;DHT22;17263;48.160;11.452;2023-11-19T07:11:07;9.80;99.90
30473;DHT22;17263;48.160;11.452;2023-11-19T07:13:35;9.80;99.90
30473;DHT22;17263;48.160;11.452;2023-11-19T07:16:01;9.80;99.90
30473;DHT22;17263;48.160;11.452;2023-11-19T07:18:28;9.80;99.90
30473;DHT22;17263;48.160;11.452;2023-11-19T07:20:54;9.90;99.90
30473;DHT22;17263;48.160;11.452;2023-11-19T07:23:20;9.90;99.90
30473;DHT22;17263;48.160;11.452;2023-11-19T07:25:47;9.90;99.90
30473;DHT22;17263;48.160;11.452;2023-11-19T07:28:14;9.90;99.90
30473;DHT22;17263;48.160;11.452;2023-11-19T07:30:40;9.90;99.90
30473;DHT22;17263;48.160;11.452;2023-11-19T07:33:06;9.90;99.90
30473;DHT22;17263;48.160;11.452;2023-11-19T07:35:32;10.00;99.90
30473;DHT22;17263;48.160;11.452;2023-11-19T07:37:58;10.10;99.90
30473;DHT22;17263;48.160;11.452;2023-11-19T07:40:24;10.10;99.90
30473;DHT22;17263;48.160;11.452;2023-11-19T07:42:51;10.10;99.90
30473;DHT22;17263;48.160;11.452;2023-11-19T07:45:17;10.10;99.90
30473;DHT22;17263;48.160;11.452;2023-11-19T07:47:44;10.10;99.90
30473;DHT22;17263;48.160;11.452;2023-11-19T07:50:10;10.10;99.90
30473;DHT22;17263;48.160;11.452;2023-11-19T07:52:39;10.10;99.90
30473;DHT22;17263;48.160;11.452;2023-11-19T07:55:05;10.20;99.90
30473;DHT22;17263;48.160;11.452;2023-11-19T07:57:31;10.20;99.90
30473;DHT22;17263;48.160;11.452;2023-11-19T07:59:57;10.10;99.90
30473;DHT22;17263;48.160;11.452;2023-11-19T08:02:24;10.20;99.90
30473;DHT22;17263;48.160;11.452;2023-11-19T08:04:50;10.20;99.90
30473;DHT22;17263;48.160;11.452;2023-11-19T08:07:18;10.20;99.90
30473;DHT22;17263;48.160;11.452;2023-11-19T08:09:45;10.30;99.90
30473;DHT22;17263;48.160;11.452;2023-11-19T08:12:11;10.20;99.90
30473;DHT22;17263;48.160;11.452;2023-11-19T08:14:38;10.30;99.90
30473;DHT22;17263;48.160;11.452;2023-11-19T08:17:05;10.30;99.90
30473;DHT22;17263;48.160;11.452;2023-11-19T08:19:31;10.30;99.90
30473;DHT22;17263;48.160;11.452;2023-11-19T08:21:57;10.40;99.90
30473;DHT22;17263;48.160;11.452;2023-11-19T08:24:23;10.40;99.90
30473;DHT22;17263;48.160;11.452;2023-11-19T08:26:49;10.50;99.90
30473;DHT22;17263;48.160;11.452;2023-11-19T08:29:15;10.60;99.90
30473;DHT22;17263;48.160;11.452;2023-11-19T08:31:42;10.60;99.90
30473;DHT22;17263;48.160;11.452;2023-11-19T08:34:08;10.60;99.90
30473;DHT22;17263;48.160;11.452;2023-11-19T08:36:35;10.70;99.90
30473;DHT22;17263;48.160;11.452;2023-11-19T08:39:01;10.70;99.90
30473;DHT22;17263;48.160;11.452;2023-11-19T08:41:27;10.70;99.90
30473;DHT22;17263;48.160;11.452;2023-11-19T08:43:53;10.70;99.90
30473;DHT22;17263;48.160;11.452;2023-11-19T08:46:19;10.80;99.90
30473;DHT22;17263;48.160;11.452;2023-11-19T08:48:45;10.80;99.90
30473;DHT22;17263;48.160;11.452;2023-11-19T08:51:12;10.90;99.90
30473;DHT22;17263;48.160;11.452;2023-11-19T08:53:38;10.90;99.90
30473;DHT22;17263;48.160;11.452;2023-11-19T08:56:05;10.90;99.90
30473;DHT22;17263;48.160;11.452;2023-11-19T08:58:31;11.00;99.90
30473;DHT22;17263;48.160;11.452;2023-11-19T09:00:57;10.90;99.90
30473;DHT22;17263;48.160;11.452;2023-11-19T09:03:23;10.90;99.90
30473;DHT22;17263;48.160;11.452;2023-11-19T09:05:52;10.90;99.90
30473;DHT22;17263;48.160;11.452;2023-11-19T09:08:18;11.00;99.90
30473;DHT22;17263;48.160;11.452;2023-11-19T09:10:44;11.00;99.90
30473;DHT22;17263;48.160;11.452;2023-11-19T09:13:13;11.00;99.90
30473;DHT22;17263;48.160;11.452;2023-11-19T09:15:39;11.00;99.90
30473;DHT22;17263;48.160;11.452;2023-11-19T09:18:05;11.00;99.90
30473;DHT22;17263;48.160;11.452;2023-11-19T09:20:31;11.00;99.90
30473;DHT22;17263;48.160;11.452;2023-11-19T09:23:04;11.10;99.90
30473;DHT22;17263;48.160;11.452;2023-11-19T09:25:30;11.10;99.90
30473;DHT22;17263;48.160;11.452;2023-11-19T09:27:56;11.10;99.90
30473;DHT22;17263;48.160;11.452;2023-11-19T09:30:22;11.20;99.90
30473;DHT22;17263;48.160;11.452;2023-11-19T09:32:48;11.30;99.90
30473;DHT22;17263;48.160;11.452;2023-11-19T09:35:14;11.40;99.90
30473;DHT22;17263;48.160;11.452;2023-11-19T09:37:43;11.50;99.90
30473;DHT22;17263;48.160;11.452;2023-11-19T09:40:09;11.50;99.90
30473;DHT22;17263;48.160;11.452;2023-11-19T09:42:45;11.50;99.90
30473;DHT22;17263;48.160;11.452;2023-11-19T09:45:16;11.50;99.90
30473;DHT22;17263;48.160;11.452;2023-11-19T09:47:46;11.60;99.90
30473;DHT22;17263;48.160;11.452;2023-11-19T09:50:17;11.60;99.90
30473;DHT22;17263;48.160;11.452;2023-11-19T09:52:47;11.50;99.90
30473;DHT22;17263;48.160;11.452;2023-11-19T09:55:13;11.50;99.90
30473;DHT22;17263;48.160;11.452;2023-11-19T09:57:40;11.60;99.90
30473;DHT22;17263;48.160;11.452;2023-11-19T10:00:08;11.70;99.90
30473;DHT22;17263;48.160;11.452;2023-11-19T10:02:36;11.80;99.90
30473;DHT22;17263;48.160;11.452;2023-11-19T10:05:09;11.90;99.90
30473;DHT22;17263;48.160;11.452;2023-11-19T10:07:36;12.10;99.90
30473;DHT22;17263;48.160;11.452;2023-11-19T10:10:03;12.10;99.90
30473;DHT22;17263;48.160;11.452;2023-11-19T10:12:32;12.20;99.90
30473;DHT22;17263;48.160;11.452;2023-11-19T10:14:58;12.30;99.90
30473;DHT22;17263;48.160;11.452;2023-11-19T10:17:28;12.30;99.90
30473;DHT22;17263;48.160;11.452;2023-11-19T10:19:57;12.40;99.90
30473;DHT22;17263;48.160;11.452;2023-11-19T10:22:26;12.40;99.90
30473;DHT22;17263;48.160;11.452;2023-11-19T10:24:53;12.40;99.90
30473;DHT22;17263;48.160;11.452;2023-11-19T10:27:19;12.50;99.90
30473;DHT22;17263;48.160;11.452;2023-11-19T10:29:46;12.60;99.90
30473;DHT22;17263;48.160;11.452;2023-11-19T10:32:13;12.70;99.90
30473;DHT22;17263;48.160;11.452;2023-11-19T10:34:40;12.80;99.90
30473;DHT22;17263;48.160;11.452;2023-11-19T10:37:07;12.80;99.90
30473;DHT22;17263;48.160;11.452;2023-11-19T10:39:54;13.00;99.90
30473;DHT22;17263;48.160;11.452;2023-11-19T10:42:20;13.00;99.90
30473;DHT22;17263;48.160;11.452;2023-11-19T10:44:47;13.00;99.90
30473;DHT22;17263;48.160;11.452;2023-11-19T10:47:16;12.90;99.90
30473;DHT22;17263;48.160;11.452;2023-11-19T10:49:45;13.10;99.90
30473;DHT22;17263;48.160;11.452;2023-11-19T10:52:18;13.20;99.90
30473;DHT22;17263;48.160;11.452;2023-11-19T10:54:51;13.40;99.90
30473;DHT22;17263;48.160;11.452;2023-11-19T10:57:20;13.40;99.90
30473;DHT22;17263;48.160;11.452;2023-11-19T10:59:52;13.30;99.90
30473;DHT22;17263;48.160;11.452;2023-11-19T11:02:24;13.40;99.90
30473;DHT22;17263;48.160;11.452;2023-11-19T11:04:51;13.30;99.90
30473;DHT22;17263;48.160;11.452;2023-11-19T11:07:22;13.20;99.90
30473;DHT22;17263;48.160;11.452;2023-11-19T11:09:54;13.30;99.90
30473;DHT22;17263;48.160;11.452;2023-11-19T11:12:22;13.30;99.90
30473;DHT22;17263;48.160;11.452;2023-11-19T11:14:50;13.40;99.90
30473;DHT22;17263;48.160;11.452;2023-11-19T11:17:18;13.40;99.90
30473;DHT22;17263;48.160;11.452;2023-11-19T11:19:45;13.40;99.90
30473;DHT22;17263;48.160;11.452;2023-11-19T11:22:12;13.40;99.90
30473;DHT22;17263;48.160;11.452;2023-11-19T11:27:40;13.50;99.90
30473;DHT22;17263;48.160;11.452;2023-11-19T11:38:40;13.60;99.90
30473;DHT22;17263;48.160;11.452;2023-11-19T11:43:50;13.60;99.90
30473;DHT22;17263;48.160;11.452;2023-11-19T11:49:03;13.60;99.90
30473;DHT22;17263;48.160;11.452;2023-11-19T12:02:21;13.60;99.90
30473;DHT22;17263;48.160;11.452;2023-11-19T12:04:49;13.60;99.90
30473;DHT22;17263;48.160;11.452;2023-11-19T12:07:20;13.50;99.90
30473;DHT22;17263;48.160;11.452;2023-11-19T12:10:07;13.50;99.90
30473;DHT22;17263;48.160;11.452;2023-11-19T12:12:33;13.50;99.90
30473;DHT22;17263;48.160;11.452;2023-11-19T12:15:08;13.50;99.90
30473;DHT22;17263;48.160;11.452;2023-11-19T12:17:41;13.60;99.90
30473;DHT22;17263;48.160;11.452;2023-11-19T12:20:10;13.60;99.90
30473;DHT22;17263;48.160;11.452;2023-11-19T12:22:41;13.50;99.90
30473;DHT22;17263;48.160;11.452;2023-11-19T12:25:09;13.50;99.90
30473;DHT22;17263;48.160;11.452;2023-11-19T12:27:44;13.50;99.90
30473;DHT22;17263;48.160;11.452;2023-11-19T12:30:11;13.60;99.90
30473;DHT22;17263;48.160;11.452;2023-11-19T12:32:41;13.70;99.90
30473;DHT22;17263;48.160;11.452;2023-11-19T12:35:09;13.70;99.90
30473;DHT22;17263;48.160;11.452;2023-11-19T12:37:44;13.60;99.90
30473;DHT22;17263;48.160;11.452;2023-11-19T12:40:18;13.60;99.90
30473;DHT22;17263;48.160;11.452;2023-11-19T12:42:46;13.60;99.90
30473;DHT22;17263;48.160;11.452;2023-11-19T12:45:13;13.60;99.90
30473;DHT22;17263;48.160;11.452;2023-11-19T12:47:40;13.60;99.90
30473;DHT22;17263;48.160;11.452;2023-11-19T12:50:07;13.50;99.90
30473;DHT22;17263;48.160;11.452;2023-11-19T12:52:35;13.50;99.90
30473;DHT22;17263;48.160;11.452;2023-11-19T12:55:02;13.60;99.90
30473;DHT22;17263;48.160;11.452;2023-11-19T12:57:41;13.60;99.90
30473;DHT22;17263;48.160;11.452;2023-11-19T13:00:18;13.60;99.90
30473;DHT22;17263;48.160;11.452;2023-11-19T13:02:47;13.60;99.90
30473;DHT22;17263;48.160;11.452;2023-11-19T13:05:22;13.60;99.90
30473;DHT22;17263;48.160;11.452;2023-11-19T13:07:48;13.60;99.90
30473;DHT22;17263;48.160;11.452;2023-11-19T13:10:14;13.60;99.90
30473;DHT22;17263;48.160;11.452;2023-11-19T13:12:41;13.60;99.90
30473;DHT22;17263;48.160;11.452;2023-11-19T13:15:23;13.60;99.90
30473;DHT22;17263;48.160;11.452;2023-11-19T13:17:50;13.60;99.90
30473;DHT22;17263;48.160;11.452;2023-11-19T13:20:16;13.60;99.90
30473;DHT22;17263;48.160;11.452;2023-11-19T13:23:00;13.50;99.90
30473;DHT22;17263;48.160;11.452;2023-11-19T13:25:27;13.50;99.90
30473;DHT22;17263;48.160;11.452;2023-11-19T13:27:54;13.50;99.90
30473;DHT22;17263;48.160;11.452;2023-11-19T13:30:24;13.50;99.90
30473;DHT22;17263;48.160;11.452;2023-11-19T13:32:51;13.50;99.90
30473;DHT22;17263;48.160;11.452;2023-11-19T13:35:18;13.60;99.90
30473;DHT22;17263;48.160;11.452;2023-11-19T13:37:45;13.60;99.90
30473;DHT22;17263;48.160;11.452;2023-11-19T13:40:11;13.50;99.90
30473;DHT22;17263;48.160;11.452;2023-11-19T13:42:40;13.40;99.90
30473;DHT22;17263;48.160;11.452;2023-11-19T13:45:11;13.30;99.90
30473;DHT22;17263;48.160;11.452;2023-11-19T13:47:42;13.30;99.90
30473;DHT22;17263;48.160;11.452;2023-11-19T13:50:10;13.40;99.90
30473;DHT22;17263;48.160;11.452;2023-11-19T13:52:37;13.40;99.90
30473;DHT22;17263;48.160;11.452;2023-11-19T13:55:09;13.30;99.90
30473;DHT22;17263;48.160;11.452;2023-11-19T13:57:38;13.30;99.90
30473;DHT22;17263;48.160;11.452;2023-11-19T14:00:06;13.30;99.90
30473;DHT22;17263;48.160;11.452;2023-11-19T14:02:33;13.30;99.90
30473;DHT22;17263;48.160;11.452;2023-11-19T14:04:59;13.30;99.90
30473;DHT22;17263;48.160;11.452;2023-11-19T14:07:26;13.30;99.90
30473;DHT22;17263;48.160;11.452;2023-11-19T14:09:52;13.30;99.90
30473;DHT22;17263;48.160;11.452;2023-11-19T14:12:18;13.30;99.90
30473;DHT22;17263;48.160;11.452;2023-11-19T14:14:44;13.20;99.90
30473;DHT22;17263;48.160;11.452;2023-11-19T14:17:10;13.10;99.90
30473;DHT22;17263;48.160;11.452;2023-11-19T14:19:37;13.10;99.90
30473;DHT22;17263;48.160;11.452;2023-11-19T14:22:05;13.10;99.90
30473;DHT22;17263;48.160;11.452;2023-11-19T14:24:31;13.00;99.90
30473;DHT22;17263;48.160;11.452;2023-11-19T14:26:57;13.00;99.90
30473;DHT22;17263;48.160;11.452;2023-11-19T14:29:24;12.90;99.90
30473;DHT22;17263;48.160;11.452;2023-11-19T14:31:55;12.90;99.90
30473;DHT22;17263;48.160;11.452;2023-11-19T14:34:21;13.00;99.90
30473;DHT22;17263;48.160;11.452;2023-11-19T14:36:48;12.90;99.90
30473;DHT22;17263;48.160;11.452;2023-11-19T14:39:15;12.90;99.90
30473;DHT22;17263;48.160;11.452;2023-11-19T14:41:42;12.90;99.90
30473;DHT22;17263;48.160;11.452;2023-11-19T14:44:09;13.00;99.90
30473;DHT22;17263;48.160;11.452;2023-11-19T14:46:36;13.00;99.90
30473;DHT22;17263;48.160;11.452;2023-11-19T14:49:02;12.90;99.90
30473;DHT22;17263;48.160;11.452;2023-11-19T14:51:30;12.80;99.90
30473;DHT22;17263;48.160;11.452;2023-11-19T14:53:56;12.80;99.90
30473;DHT22;17263;48.160;11.452;2023-11-19T14:56:22;12.70;99.90
30473;DHT22;17263;48.160;11.452;2023-11-19T14:58:48;12.50;99.90
30473;DHT22;17263;48.160;11.452;2023-11-19T15:01:16;12.40;99.90
30473;DHT22;17263;48.160;11.452;2023-11-19T15:03:44;12.30;99.90
30473;DHT22;17263;48.160;11.452;2023-11-19T15:06:10;12.20;99.90
30473;DHT22;17263;48.160;11.452;2023-11-19T15:08:37;12.10;99.90
30473;DHT22;17263;48.160;11.452;2023-11-19T15:11:03;12.10;99.90
30473;DHT22;17263;48.160;11.452;2023-11-19T15:13:32;12.10;99.90
30473;DHT22;17263;48.160;11.452;2023-11-19T15:15:58;12.10;99.90
30473;DHT22;17263;48.160;11.452;2023-11-19T15:18:24;12.10;99.90
30473;DHT22;17263;48.160;11.452;2023-11-19T15:20:50;12.10;99.90
30473;DHT22;17263;48.160;11.452;2023-11-19T15:23:16;12.10;99.90
30473;DHT22;17263;48.160;11.452;2023-11-19T15:25:42;12.10;99.90
30473;DHT22;17263;48.160;11.452;2023-11-19T15:28:09;11.90;99.90
30473;DHT22;17263;48.160;11.452;2023-11-19T15:30:35;11.90;99.90
30473;DHT22;17263;48.160;11.452;2023-11-19T15:33:02;11.80;99.90
30473;DHT22;17263;48.160;11.452;2023-11-19T15:35:28;11.80;99.90
30473;DHT22;17263;48.160;11.452;2023-11-19T15:37:54;11.80;99.90
30473;DHT22;17263;48.160;11.452;2023-11-19T15:40:21;11.70;99.90
30473;DHT22;17263;48.160;11.452;2023-11-19T15:42:47;11.70;99.90
30473;DHT22;17263;48.160;11.452;2023-11-19T15:45:13;11.70;99.90
30473;DHT22;17263;48.160;11.452;2023-11-19T15:47:42;11.60;99.90
30473;DHT22;17263;48.160;11.452;2023-11-19T15:50:08;11.60;99.90
30473;DHT22;17263;48.160;11.452;2023-11-19T15:52:35;11.60;99.90
30473;DHT22;17263;48.160;11.452;2023-11-19T15:55:02;11.60;99.90